LIBR/BDS METAR and TAF weather

Enter ICAO airport designator
Station Type Date Time Source
LIBR METAR 2020/07/11 00:50 UTC NOAA

LIBR 110050Z AUTO 26004KT 9999 NCD 20/16 Q1014


Station Type Date Time Source
LIBR Decoded METAR 2020/07/11 00:50 UTC NOAA

Brindisi, Italy (LIBR) 40-39N 017-57E 10M
Jul 10, 2020 - 08:50 PM EDT / 2020.07.11 0050 UTC
Wind: from the W (260 degrees) at 5 MPH (4 KT):0
Visibility: greater than 7 mile(s):0
Temperature: 68 F (20 C)
Dew Point: 60 F (16 C)
Relative Humidity: 77%
Pressure (altimeter): 29.94 in. Hg (1014 hPa)
ob: LIBR 110050Z AUTO 26004KT 9999 NCD 20/16 Q1014
cycle: 1

Station Type Date Time Source
LIBR TAF 2020/07/10 18:22 UTC NOAA

TAF LIBR 101700Z 1018/1118 VRB05KT CAVOK
BECMG 1109/1111 03010KT

Example: see airport list